createdAt,value
2024-05-09T00:00:48.121Z,100831.09
2024-05-09T00:03:36.707Z,100832.73
2024-05-09T00:06:05.811Z,100831.83
2024-05-09T00:08:35.125Z,100827.86
2024-05-09T00:11:03.968Z,100827.64
2024-05-09T00:13:32.672Z,100831.16
2024-05-09T00:16:01.218Z,100830.64
2024-05-09T00:18:29.794Z,100827.81
2024-05-09T00:20:58.295Z,100826.73
2024-05-09T00:23:27.017Z,100827.92
2024-05-09T00:25:55.559Z,100827.19
2024-05-09T00:28:25.761Z,100830.38
2024-05-09T00:30:54.571Z,100824.58
2024-05-09T00:33:23.132Z,100831.60
2024-05-09T00:35:51.479Z,100832.60
2024-05-09T00:38:19.667Z,100827.92
2024-05-09T00:40:47.922Z,100829.10
2024-05-09T00:43:16.307Z,100825.89
2024-05-09T00:45:44.762Z,100825.00
2024-05-09T00:48:17.299Z,100824.33
2024-05-09T00:50:48.336Z,100815.58
2024-05-09T00:53:18.512Z,100812.10
2024-05-09T00:55:47.774Z,100811.77
2024-05-09T00:58:19.372Z,100813.89
2024-05-09T01:00:49.154Z,100813.05
2024-05-09T01:03:18.008Z,100819.56
2024-05-09T01:05:46.502Z,100815.59
2024-05-09T01:08:14.843Z,100817.05
2024-05-09T01:10:46.105Z,100818.70
2024-05-09T01:13:16.361Z,100817.59
2024-05-09T01:15:44.573Z,100816.71
2024-05-09T01:18:13.806Z,100816.23
2024-05-09T01:20:44.682Z,100816.21
2024-05-09T01:23:15.859Z,100812.86
2024-05-09T01:25:46.532Z,100807.70
2024-05-09T01:28:16.160Z,100811.38
2024-05-09T01:30:44.758Z,100810.33
2024-05-09T01:33:13.560Z,100811.63
2024-05-09T01:35:43.071Z,100808.18
2024-05-09T01:38:17.346Z,100810.50
2024-05-09T01:40:48.041Z,100803.95
2024-05-09T01:43:16.412Z,100801.65
2024-05-09T01:45:44.902Z,100799.82
2024-05-09T01:48:13.766Z,100800.72
2024-05-09T01:50:43.301Z,100798.66
2024-05-09T01:53:14.715Z,100800.11
2024-05-09T01:55:44.582Z,100797.98
2024-05-09T01:58:13.302Z,100802.39
2024-05-09T02:00:43.134Z,100799.39
2024-05-09T02:03:16.413Z,100797.25
2024-05-09T02:05:49.814Z,100798.52
2024-05-09T02:08:19.912Z,100797.26
2024-05-09T02:10:50.032Z,100797.16
2024-05-09T02:13:18.917Z,100802.55
2024-05-09T02:15:47.373Z,100801.29
2024-05-09T02:18:15.844Z,100807.14
2024-05-09T02:20:44.401Z,100807.69
2024-05-09T02:23:13.880Z,100809.77
2024-05-09T02:25:42.479Z,100808.00
2024-05-09T02:28:10.977Z,100813.81
2024-05-09T02:30:41.468Z,100812.02
2024-05-09T02:33:13.003Z,100813.95
2024-05-09T02:35:44.228Z,100814.33
2024-05-09T02:38:13.646Z,100813.58
2024-05-09T02:40:42.139Z,100812.24
2024-05-09T02:43:12.661Z,100810.59
2024-05-09T02:45:41.890Z,100821.26
2024-05-09T02:48:11.865Z,100823.56
2024-05-09T02:50:41.227Z,100816.58
2024-05-09T02:53:11.815Z,100814.52
2024-05-09T02:55:41.242Z,100814.89
2024-05-09T02:58:10.647Z,100814.02
2024-05-09T03:00:41.620Z,100812.96
2024-05-09T03:03:14.380Z,100815.30
2024-05-09T03:05:46.799Z,100811.95
2024-05-09T03:08:15.512Z,100818.10
2024-05-09T03:10:43.956Z,100817.53
2024-05-09T03:13:15.451Z,100821.75
2024-05-09T03:15:45.176Z,100823.88
2024-05-09T03:18:13.924Z,100821.61
2024-05-09T03:20:44.622Z,100822.43
2024-05-09T03:23:13.479Z,100821.55
2024-05-09T03:25:42.065Z,100817.30
2024-05-09T03:28:11.558Z,100818.71
2024-05-09T03:30:42.479Z,100821.52
2024-05-09T03:33:18.815Z,100823.01
2024-05-09T03:35:49.534Z,100824.80
2024-05-09T03:38:18.383Z,100827.81
2024-05-09T03:40:48.182Z,100833.78
2024-05-09T03:43:18.358Z,100842.19
2024-05-09T03:45:49.305Z,100843.35
2024-05-09T03:48:17.716Z,100847.30
2024-05-09T03:50:47.142Z,100848.64
2024-05-09T03:53:15.648Z,100848.33
2024-05-09T03:55:44.329Z,100850.61
2024-05-09T03:58:14.536Z,100852.88
2024-05-09T04:00:43.451Z,100851.36
2024-05-09T04:03:13.198Z,100847.20
2024-05-09T04:05:45.992Z,100850.63
2024-05-09T04:08:15.508Z,100852.60
2024-05-09T04:10:44.370Z,100855.11
2024-05-09T04:13:12.986Z,100853.59
2024-05-09T04:15:41.528Z,100854.75
2024-05-09T04:18:10.095Z,100856.27
2024-05-09T04:20:40.747Z,100861.28
2024-05-09T04:23:14.627Z,100865.80
2024-05-09T04:25:45.308Z,100861.19
2024-05-09T04:28:14.498Z,100857.54
2024-05-09T04:30:43.595Z,100858.32
2024-05-09T04:33:14.939Z,100857.14
2024-05-09T04:35:44.184Z,100861.94
2024-05-09T04:38:13.985Z,100863.89
2024-05-09T04:40:43.870Z,100862.20
2024-05-09T04:43:18.569Z,100861.05
2024-05-09T04:45:47.043Z,100863.05
2024-05-09T04:48:16.531Z,100865.73
2024-05-09T04:50:45.470Z,100864.17
2024-05-09T04:53:17.214Z,100867.73
2024-05-09T04:55:46.301Z,100870.23
2024-05-09T04:58:15.118Z,100873.53
2024-05-09T05:00:44.196Z,100880.90
2024-05-09T05:03:14.998Z,100879.78
2024-05-09T05:05:47.143Z,100881.67
2024-05-09T05:08:18.207Z,100889.54
2024-05-09T05:10:48.717Z,100890.82
2024-05-09T05:13:22.725Z,100889.48
2024-05-09T05:15:56.943Z,100884.40
2024-05-09T05:18:28.228Z,100888.83
2024-05-09T05:20:57.848Z,100884.96
2024-05-09T05:23:26.159Z,100888.72
2024-05-09T05:25:55.434Z,100886.64
2024-05-09T05:28:24.344Z,100882.59
2024-05-09T05:30:52.696Z,100882.58
2024-05-09T05:33:23.051Z,100879.41
2024-05-09T05:35:51.782Z,100883.98
2024-05-09T05:38:22.842Z,100882.58
2024-05-09T05:40:53.406Z,100880.85
2024-05-09T05:43:21.895Z,100883.88
2024-05-09T05:45:50.727Z,100881.60
2024-05-09T05:48:19.319Z,100882.84
2024-05-09T05:50:48.192Z,100877.53
2024-05-09T05:53:17.096Z,100885.30
2024-05-09T05:55:45.668Z,100884.77
2024-05-09T05:58:14.783Z,100884.59
2024-05-09T06:00:43.452Z,100889.02
2024-05-09T06:03:13.460Z,100890.48
2024-05-09T06:05:48.772Z,100892.13
2024-05-09T06:08:17.349Z,100894.27
2024-05-09T06:10:46.454Z,100893.39
2024-05-09T06:13:15.973Z,100888.95
2024-05-09T06:15:45.083Z,100893.90
2024-05-09T06:18:15.102Z,100888.21
2024-05-09T06:20:44.462Z,100889.25
2024-05-09T06:23:14.525Z,100886.25
2024-05-09T06:25:44.072Z,100882.16
2024-05-09T06:28:13.139Z,100884.45
2024-05-09T06:30:43.155Z,100879.64
2024-05-09T06:33:14.681Z,100883.52
2024-05-09T06:35:46.320Z,100885.11
2024-05-09T06:38:15.373Z,100884.23
2024-05-09T06:40:44.642Z,100887.40
2024-05-09T06:43:15.430Z,100884.20
2024-05-09T06:45:47.632Z,100878.20
2024-05-09T06:48:20.516Z,100883.64
2024-05-09T06:50:49.857Z,100883.91
2024-05-09T06:53:20.547Z,100882.23
2024-05-09T06:55:49.104Z,100889.84
2024-05-09T06:58:17.882Z,100893.34
2024-05-09T07:00:46.249Z,100896.85
2024-05-09T07:03:17.828Z,100898.08
2024-05-09T07:05:49.213Z,100899.04
2024-05-09T07:08:19.088Z,100899.15
2024-05-09T07:10:48.000Z,100905.35
2024-05-09T07:13:16.650Z,100902.70
2024-05-09T07:15:45.339Z,100902.16
2024-05-09T07:18:17.180Z,100902.05
2024-05-09T07:20:50.750Z,100900.30
2024-05-09T07:23:19.767Z,100902.05
2024-05-09T07:25:48.237Z,100902.20
2024-05-09T07:28:18.127Z,100901.42
2024-05-09T07:30:46.930Z,100906.80
2024-05-09T07:33:17.480Z,100907.55
2024-05-09T07:35:46.124Z,100912.18
2024-05-09T07:38:14.710Z,100914.25
2024-05-09T07:40:43.490Z,100913.80
2024-05-09T07:43:12.970Z,100912.55
2024-05-09T07:45:50.726Z,100909.61
2024-05-09T07:50:00.973Z,100906.91
2024-05-09T07:53:49.681Z,100900.31
2024-05-09T07:56:23.150Z,100906.66
2024-05-09T07:58:54.195Z,100911.65
2024-05-09T08:01:25.653Z,100912.83
2024-05-09T08:03:55.299Z,100911.64
2024-05-09T08:06:24.357Z,100907.41
2024-05-09T08:08:52.745Z,100905.44
2024-05-09T08:11:21.012Z,100910.33
2024-05-09T08:13:49.302Z,100908.80
2024-05-09T08:16:18.082Z,100903.90
2024-05-09T08:18:46.475Z,100901.81
2024-05-09T08:21:15.036Z,100899.77
2024-05-09T08:23:43.177Z,100903.77
2024-05-09T08:26:11.924Z,100902.05
2024-05-09T08:28:40.248Z,100904.38
2024-05-09T08:31:10.306Z,100905.52
2024-05-09T08:33:45.255Z,100906.30
2024-05-09T08:36:14.197Z,100902.49
2024-05-09T08:38:42.495Z,100901.27
2024-05-09T08:41:14.054Z,100896.04
2024-05-09T08:43:44.479Z,100898.40
2024-05-09T08:46:14.164Z,100897.55
2024-05-09T08:48:45.623Z,100895.60
2024-05-09T08:51:14.221Z,100894.92
2024-05-09T08:53:42.501Z,100893.27
2024-05-09T08:56:11.839Z,100890.66
2024-05-09T08:58:42.079Z,100894.72
2024-05-09T09:01:12.555Z,100889.83
2024-05-09T09:03:41.659Z,100894.10
2024-05-09T09:06:12.613Z,100892.79
2024-05-09T09:08:41.400Z,100888.61
2024-05-09T09:11:10.745Z,100892.86
2024-05-09T09:13:39.067Z,100891.31
2024-05-09T09:16:07.647Z,100892.02
2024-05-09T09:18:36.083Z,100888.23
2024-05-09T09:21:04.838Z,100884.81
2024-05-09T09:23:33.479Z,100888.20
2024-05-09T09:26:01.968Z,100890.05
2024-05-09T09:28:30.232Z,100887.44
2024-05-09T09:31:03.366Z,100886.80
2024-05-09T09:33:32.778Z,100884.61
2024-05-09T09:36:06.299Z,100888.39
2024-05-09T09:38:40.074Z,100882.63
2024-05-09T09:41:10.757Z,100884.38
2024-05-09T09:43:40.855Z,100880.95
2024-05-09T09:46:12.232Z,100878.19
2024-05-09T09:48:41.938Z,100873.52
2024-05-09T09:51:10.881Z,100872.71
2024-05-09T09:53:39.935Z,100872.02
2024-05-09T09:56:08.088Z,100874.52
2024-05-09T09:58:38.848Z,100871.15
2024-05-09T10:01:07.099Z,100872.77
2024-05-09T10:03:35.599Z,100874.77
2024-05-09T10:06:05.026Z,100871.48
2024-05-09T10:08:34.271Z,100870.10
2024-05-09T10:11:04.278Z,100870.83
2024-05-09T10:13:34.031Z,100870.52
2024-05-09T10:16:09.249Z,100864.11
2024-05-09T10:18:39.376Z,100865.89
2024-05-09T10:21:21.113Z,100867.16
2024-05-09T10:24:00.583Z,100863.52
2024-05-09T10:26:38.940Z,100863.48
2024-05-09T10:29:18.477Z,100857.77
2024-05-09T10:31:47.995Z,100856.63
2024-05-09T10:34:23.434Z,100854.14
2024-05-09T10:36:54.307Z,100854.91
2024-05-09T10:39:23.094Z,100848.98
2024-05-09T10:41:51.447Z,100843.89
2024-05-09T10:44:21.525Z,100846.77
2024-05-09T10:46:50.669Z,100845.38
2024-05-09T10:49:19.218Z,100849.02
2024-05-09T10:51:48.606Z,100843.13
2024-05-09T10:54:17.394Z,100835.61
2024-05-09T10:56:45.814Z,100840.76
2024-05-09T10:59:13.941Z,100841.52
2024-05-09T11:01:42.374Z,100836.30
2024-05-09T11:04:10.918Z,100834.42
2024-05-09T11:06:39.261Z,100826.94
2024-05-09T11:09:07.776Z,100825.75
2024-05-09T11:11:36.193Z,100826.48
2024-05-09T11:14:14.022Z,100824.44
2024-05-09T11:16:42.143Z,100819.67
2024-05-09T11:19:14.515Z,100821.45
2024-05-09T11:21:43.211Z,100821.58
2024-05-09T11:24:11.894Z,100826.41
2024-05-09T11:26:40.240Z,100821.83
2024-05-09T11:29:08.679Z,100822.42
2024-05-09T11:31:47.001Z,100817.63
2024-05-09T11:34:16.262Z,100815.72
2024-05-09T11:36:44.736Z,100809.35
2024-05-09T11:39:14.613Z,100806.27
2024-05-09T11:41:43.149Z,100802.64
2024-05-09T11:44:11.398Z,100799.58
2024-05-09T11:46:39.821Z,100801.23
2024-05-09T11:49:09.681Z,100798.91
2024-05-09T11:51:38.288Z,100799.76
2024-05-09T11:54:06.681Z,100802.68
2024-05-09T11:56:34.791Z,100801.63
2024-05-09T11:59:03.384Z,100800.80
2024-05-09T12:01:31.646Z,100800.81
2024-05-09T12:04:00.141Z,100798.74
2024-05-09T12:06:29.666Z,100796.80
2024-05-09T12:08:57.970Z,100794.14
2024-05-09T12:11:26.318Z,100792.13
2024-05-09T12:13:54.517Z,100790.27
2024-05-09T12:16:23.068Z,100788.72
2024-05-09T12:18:52.001Z,100788.86
2024-05-09T12:21:20.526Z,100783.77
2024-05-09T12:23:48.805Z,100781.48
2024-05-09T12:26:17.308Z,100778.13
2024-05-09T12:28:45.696Z,100778.41
2024-05-09T12:31:14.065Z,100775.61
2024-05-09T12:33:42.339Z,100778.66
2024-05-09T12:36:11.079Z,100775.98
2024-05-09T12:38:40.930Z,100772.64
2024-05-09T12:41:10.333Z,100772.37
2024-05-09T12:43:38.752Z,100766.27
2024-05-09T12:46:07.189Z,100768.43
2024-05-09T12:48:35.745Z,100768.02
2024-05-09T12:51:05.899Z,100770.73
2024-05-09T12:53:36.355Z,100770.55
2024-05-09T12:56:06.642Z,100770.11
2024-05-09T12:58:36.923Z,100769.09
2024-05-09T13:01:05.222Z,100761.18
2024-05-09T13:03:33.784Z,100765.48
2024-05-09T13:06:02.285Z,100760.61
2024-05-09T13:08:30.728Z,100756.14
2024-05-09T13:10:58.863Z,100757.84
2024-05-09T13:13:29.011Z,100750.83
2024-05-09T13:15:57.312Z,100749.48
2024-05-09T13:18:26.003Z,100745.77
2024-05-09T13:20:54.462Z,100744.20
2024-05-09T13:23:22.817Z,100748.54
2024-05-09T13:25:51.053Z,100745.42
2024-05-09T13:28:21.115Z,100744.45
2024-05-09T13:30:49.554Z,100745.02
2024-05-09T13:33:18.073Z,100741.14
2024-05-09T13:35:49.762Z,100741.73
2024-05-09T13:38:20.732Z,100739.81
2024-05-09T13:40:50.451Z,100732.88
2024-05-09T13:43:20.858Z,100726.61
2024-05-09T13:45:49.182Z,100725.05
2024-05-09T13:48:18.154Z,100725.52
2024-05-09T13:50:46.463Z,100726.17
2024-05-09T13:53:15.073Z,100725.52
2024-05-09T13:55:43.263Z,100727.93
2024-05-09T13:58:11.530Z,100726.96
2024-05-09T14:00:46.342Z,100721.85
2024-05-09T14:03:19.838Z,100717.21
2024-05-09T14:05:51.375Z,100706.54
2024-05-09T14:08:22.122Z,100708.77
2024-05-09T14:10:52.200Z,100704.95
2024-05-09T14:13:20.685Z,100704.09
2024-05-09T14:15:49.474Z,100707.57
2024-05-09T14:18:18.001Z,100707.10
2024-05-09T14:20:46.277Z,100702.74
2024-05-09T14:23:14.959Z,100698.48
2024-05-09T14:25:44.483Z,100700.03
2024-05-09T14:28:14.235Z,100700.52
2024-05-09T14:30:42.984Z,100699.02
2024-05-09T14:33:12.496Z,100690.44
2024-05-09T14:35:40.740Z,100692.02
2024-05-09T14:38:10.058Z,100690.02
2024-05-09T14:40:42.503Z,100685.56
2024-05-09T14:43:14.636Z,100687.89
2024-05-09T14:45:44.624Z,100688.46
2024-05-09T14:48:15.363Z,100691.70
2024-05-09T14:50:44.171Z,100692.36
2024-05-09T14:53:13.853Z,100692.96
2024-05-09T14:55:43.563Z,100692.94
2024-05-09T14:58:13.169Z,100686.48
2024-05-09T15:00:46.726Z,100685.39
2024-05-09T15:03:22.314Z,100685.83
2024-05-09T15:05:52.268Z,100685.05
2024-05-09T15:08:20.883Z,100683.55
2024-05-09T15:10:50.110Z,100681.42
2024-05-09T15:13:20.457Z,100679.33
2024-05-09T15:15:49.576Z,100672.40
2024-05-09T15:18:18.138Z,100674.56
2024-05-09T15:20:47.082Z,100674.82
2024-05-09T15:23:15.553Z,100671.02
2024-05-09T15:25:44.830Z,100669.91
2024-05-09T15:28:13.632Z,100670.82
2024-05-09T15:30:45.944Z,100667.52
2024-05-09T15:33:15.274Z,100669.44
2024-05-09T15:35:46.187Z,100670.29
2024-05-09T15:38:15.621Z,100669.09
2024-05-09T15:40:44.060Z,100666.71
2024-05-09T15:43:12.624Z,100663.76
2024-05-09T15:45:41.762Z,100664.88
2024-05-09T15:48:11.353Z,100669.33
2024-05-09T15:50:42.033Z,100669.77
2024-05-09T15:53:13.216Z,100672.53
2024-05-09T15:55:43.045Z,100667.45
2024-05-09T15:58:11.600Z,100671.39
2024-05-09T16:00:42.825Z,100672.01
2024-05-09T16:03:14.236Z,100670.43
2024-05-09T16:05:45.494Z,100675.08
2024-05-09T16:08:15.178Z,100674.20
2024-05-09T16:10:45.904Z,100680.61
2024-05-09T16:13:16.618Z,100683.62
2024-05-09T16:15:46.193Z,100680.24
2024-05-09T16:18:14.993Z,100676.46
2024-05-09T16:20:44.964Z,100675.88
2024-05-09T16:23:14.810Z,100673.67
2024-05-09T16:25:46.102Z,100673.21
2024-05-09T16:28:14.724Z,100671.87
2024-05-09T16:30:43.114Z,100678.87
2024-05-09T16:33:11.973Z,100683.91
2024-05-09T16:35:40.628Z,100680.77
2024-05-09T16:38:09.052Z,100685.10
2024-05-09T16:40:40.460Z,100686.23
2024-05-09T16:43:12.013Z,100689.30
2024-05-09T16:45:46.233Z,100691.13
2024-05-09T16:48:14.734Z,100699.55
2024-05-09T16:50:43.504Z,100699.27
2024-05-09T16:53:13.568Z,100697.91
2024-05-09T16:55:41.751Z,100701.18
2024-05-09T16:58:12.405Z,100703.19
2024-05-09T17:00:43.440Z,100707.34
2024-05-09T17:03:15.270Z,100706.15
2024-05-09T17:05:46.927Z,100709.06
2024-05-09T17:08:19.946Z,100711.05
2024-05-09T17:10:49.448Z,100704.73
2024-05-09T17:13:19.011Z,100707.26
2024-05-09T17:15:49.531Z,100703.91
2024-05-09T17:18:18.189Z,100710.70
2024-05-09T17:20:46.504Z,100707.37
2024-05-09T17:23:14.838Z,100709.01
2024-05-09T17:25:43.505Z,100714.36
2024-05-09T17:28:12.462Z,100710.50
2024-05-09T17:30:42.497Z,100718.86
2024-05-09T17:33:13.019Z,100716.94
2024-05-09T17:35:41.921Z,100728.45
2024-05-09T17:38:10.231Z,100727.05
2024-05-09T17:40:39.238Z,100723.48
2024-05-09T17:43:10.430Z,100728.63
2024-05-09T17:45:41.064Z,100726.48
2024-05-09T17:48:11.927Z,100723.11
2024-05-09T17:50:41.913Z,100723.27
2024-05-09T17:53:10.834Z,100727.33
2024-05-09T17:55:40.119Z,100729.08
2024-05-09T17:58:08.687Z,100731.54
2024-05-09T18:00:40.274Z,100736.11
2024-05-09T18:03:12.477Z,100739.63
2024-05-09T18:05:44.271Z,100736.05
2024-05-09T18:08:13.534Z,100740.80
2024-05-09T18:10:42.866Z,100746.56
2024-05-09T18:13:12.887Z,100749.73
2024-05-09T18:15:41.665Z,100755.00
2024-05-09T18:18:11.671Z,100759.05
2024-05-09T18:20:44.265Z,100764.67
2024-05-09T18:23:17.551Z,100765.89
2024-05-09T18:25:48.045Z,100766.91
2024-05-09T18:28:17.330Z,100770.77
2024-05-09T18:30:46.489Z,100774.95
2024-05-09T18:33:15.781Z,100775.27
2024-05-09T18:35:45.415Z,100778.39
2024-05-09T18:38:14.161Z,100780.45
2024-05-09T18:40:44.758Z,100782.34
2024-05-09T18:43:15.620Z,100787.91
2024-05-09T18:45:45.140Z,100788.02
2024-05-09T18:48:13.623Z,100793.25
2024-05-09T18:50:42.249Z,100797.42
2024-05-09T18:53:12.133Z,100801.41
2024-05-09T18:55:44.776Z,100796.55
2024-05-09T18:58:13.390Z,100801.58
2024-05-09T19:00:44.159Z,100803.09
2024-05-09T19:03:15.672Z,100808.30
2024-05-09T19:05:46.135Z,100811.05
2024-05-09T19:08:15.624Z,100816.61
2024-05-09T19:10:45.803Z,100817.77
2024-05-09T19:13:15.071Z,100819.27
2024-05-09T19:15:44.498Z,100816.21
2024-05-09T19:18:14.264Z,100815.50
2024-05-09T19:20:43.813Z,100819.85
2024-05-09T19:23:12.447Z,100819.44
2024-05-09T19:25:40.868Z,100825.54
2024-05-09T19:28:09.404Z,100827.79
2024-05-09T19:30:41.330Z,100839.90
2024-05-09T19:33:14.762Z,100839.65
2024-05-09T19:35:43.961Z,100843.62
2024-05-09T19:38:12.289Z,100847.77
2024-05-09T19:40:41.676Z,100850.50
2024-05-09T19:43:11.067Z,100851.11
2024-05-09T19:45:39.684Z,100850.18
2024-05-09T19:48:08.520Z,100851.20
2024-05-09T19:50:42.515Z,100853.27
2024-05-09T19:53:14.696Z,100851.94
2024-05-09T19:55:43.470Z,100853.27
2024-05-09T19:58:12.860Z,100850.20
2024-05-09T20:00:43.627Z,100854.34
2024-05-09T20:03:15.093Z,100856.21
2024-05-09T20:05:46.714Z,100857.05
2024-05-09T20:08:16.777Z,100857.05
2024-05-09T20:10:45.103Z,100858.58
2024-05-09T20:13:13.671Z,100861.27
2024-05-09T20:15:42.440Z,100865.95
2024-05-09T20:18:11.429Z,100865.70
2024-05-09T20:20:42.998Z,100865.25
2024-05-09T20:23:13.907Z,100860.07
2024-05-09T20:25:42.677Z,100864.29
2024-05-09T20:28:11.243Z,100862.11
2024-05-09T20:30:39.995Z,100859.73
2024-05-09T20:33:09.691Z,100861.42
2024-05-09T20:35:38.584Z,100865.02
2024-05-09T20:38:07.202Z,100862.46
2024-05-09T20:40:38.456Z,100860.11
2024-05-09T20:43:11.675Z,100861.44
2024-05-09T20:45:40.684Z,100861.71
2024-05-09T20:48:09.834Z,100861.23
2024-05-09T20:50:41.387Z,100857.98
2024-05-09T20:53:13.501Z,100857.90
2024-05-09T20:55:44.399Z,100852.34
2024-05-09T20:58:13.925Z,100851.23
2024-05-09T21:00:45.476Z,100851.55
2024-05-09T21:03:17.036Z,100852.67
2024-05-09T21:05:47.814Z,100854.31
2024-05-09T21:08:16.689Z,100857.52
2024-05-09T21:10:44.966Z,100859.52
2024-05-09T21:13:13.408Z,100867.14
2024-05-09T21:15:41.845Z,100869.23
2024-05-09T21:18:10.368Z,100868.81
2024-05-09T21:20:38.711Z,100868.53
2024-05-09T21:23:06.962Z,100871.23
2024-05-09T21:25:35.152Z,100869.59
2024-05-09T21:28:03.946Z,100872.34
2024-05-09T21:30:41.058Z,100876.02
2024-05-09T21:33:13.455Z,100877.00
2024-05-09T21:35:44.616Z,100877.69
2024-05-09T21:38:14.713Z,100879.65
2024-05-09T21:40:44.932Z,100878.94
2024-05-09T21:43:14.418Z,100880.60
2024-05-09T21:45:43.431Z,100885.13
2024-05-09T21:48:13.302Z,100881.39
2024-05-09T21:50:42.600Z,100882.77
2024-05-09T21:53:12.592Z,100884.73
2024-05-09T21:55:42.547Z,100889.77
2024-05-09T21:58:14.689Z,100888.23
2024-05-09T22:00:45.587Z,100888.31
2024-05-09T22:03:14.331Z,100892.60
2024-05-09T22:05:44.919Z,100889.91
2024-05-09T22:08:13.938Z,100888.98
2024-05-09T22:10:42.672Z,100892.55
2024-05-09T22:13:11.221Z,100890.50
2024-05-09T22:15:40.529Z,100894.09
2024-05-09T22:18:10.995Z,100891.17
2024-05-09T22:20:45.492Z,100892.99
2024-05-09T22:23:15.731Z,100889.11
2024-05-09T22:25:44.599Z,100890.41
2024-05-09T22:28:15.381Z,100887.51
2024-05-09T22:30:48.225Z,100891.05
2024-05-09T22:33:16.562Z,100889.13
2024-05-09T22:35:47.326Z,100887.63
2024-05-09T22:38:15.511Z,100885.83
2024-05-09T22:40:48.332Z,100885.92
2024-05-09T22:43:20.794Z,100885.25
2024-05-09T22:45:50.996Z,100887.92
2024-05-09T22:48:19.744Z,100887.11
2024-05-09T22:50:48.572Z,100887.75
2024-05-09T22:53:17.010Z,100885.60
2024-05-09T22:55:45.374Z,100887.11
2024-05-09T22:58:13.607Z,100884.54
2024-05-09T23:00:42.186Z,100887.10
2024-05-09T23:03:10.590Z,100885.44
2024-05-09T23:05:39.141Z,100884.29
2024-05-09T23:08:08.605Z,100882.25
2024-05-09T23:10:38.086Z,100883.13
2024-05-09T23:13:07.918Z,100881.98
2024-05-09T23:15:39.818Z,100883.67
2024-05-09T23:18:08.587Z,100882.91
2024-05-09T23:20:39.428Z,100884.66
2024-05-09T23:23:10.360Z,100882.77
2024-05-09T23:25:43.800Z,100884.31
2024-05-09T23:28:12.698Z,100883.15
2024-05-09T23:30:41.980Z,100884.83
2024-05-09T23:33:12.899Z,100884.86
2024-05-09T23:35:45.966Z,100888.30
2024-05-09T23:38:14.529Z,100890.89
2024-05-09T23:40:43.524Z,100892.35
2024-05-09T23:43:14.164Z,100893.05
2024-05-09T23:45:43.208Z,100898.53
2024-05-09T23:48:11.872Z,100899.77
2024-05-09T23:50:41.019Z,100903.71
2024-05-09T23:53:10.978Z,100901.94
2024-05-09T23:55:40.570Z,100905.89
2024-05-09T23:58:11.286Z,100907.85
